createdAt,value
2018-03-23T00:00:42.805Z,0.00
2018-03-23T00:01:42.730Z,0.00
2018-03-23T00:02:42.644Z,0.00
2018-03-23T00:03:42.566Z,0.00
2018-03-23T00:04:42.479Z,0.00
2018-03-23T00:05:42.390Z,0.00
2018-03-23T00:06:42.315Z,0.00
2018-03-23T00:07:42.230Z,0.00
2018-03-23T00:08:42.157Z,0.00
2018-03-23T00:09:42.080Z,0.00
2018-03-23T00:10:41.979Z,0.00
2018-03-23T00:11:41.907Z,0.00
2018-03-23T00:12:41.816Z,0.00
2018-03-23T00:13:41.745Z,0.00
2018-03-23T00:14:41.655Z,0.00
2018-03-23T00:15:41.580Z,0.00
2018-03-23T00:16:41.491Z,0.00
2018-03-23T00:17:41.408Z,0.00
2018-03-23T00:18:41.331Z,0.00
2018-03-23T00:19:41.242Z,0.00
2018-03-23T00:20:41.181Z,0.00
2018-03-23T00:21:41.082Z,0.00
2018-03-23T00:22:40.993Z,0.00
2018-03-23T00:23:40.918Z,0.00
2018-03-23T00:24:40.832Z,0.00
2018-03-23T00:25:40.744Z,0.00
2018-03-23T00:26:40.682Z,0.00
2018-03-23T00:27:40.582Z,0.00
2018-03-23T00:28:40.506Z,0.00
2018-03-23T00:29:40.420Z,0.00
2018-03-23T00:30:40.343Z,0.00
2018-03-23T00:31:40.257Z,0.00
2018-03-23T00:32:40.185Z,0.00
2018-03-23T00:33:40.097Z,0.00
2018-03-23T00:34:40.009Z,0.00
2018-03-23T00:35:39.933Z,0.00
2018-03-23T00:36:39.849Z,0.00
2018-03-23T00:37:39.761Z,0.00
2018-03-23T00:38:39.681Z,0.00
2018-03-23T00:39:39.594Z,0.00
2018-03-23T00:40:39.519Z,0.00
2018-03-23T00:41:39.433Z,0.00
2018-03-23T00:42:39.344Z,0.00
2018-03-23T00:43:39.270Z,0.00
2018-03-23T00:44:39.184Z,0.00
2018-03-23T00:45:39.110Z,0.00
2018-03-23T00:46:39.020Z,0.00
2018-03-23T00:47:38.933Z,0.00
2018-03-23T00:48:38.859Z,0.00
2018-03-23T00:49:38.770Z,0.00
2018-03-23T00:50:38.709Z,0.00
2018-03-23T00:51:38.609Z,0.00
2018-03-23T00:52:38.521Z,0.00
2018-03-23T00:53:38.446Z,0.00
2018-03-23T00:54:38.360Z,0.00
2018-03-23T00:55:38.288Z,0.00
2018-03-23T00:56:38.198Z,0.00
2018-03-23T00:57:38.109Z,0.00
2018-03-23T00:58:38.039Z,0.00
2018-03-23T00:59:37.948Z,0.00
2018-03-23T01:00:37.871Z,0.00
2018-03-23T01:01:37.787Z,0.00
2018-03-23T01:02:37.696Z,0.00
2018-03-23T01:03:37.626Z,0.00
2018-03-23T01:04:37.536Z,0.00
2018-03-23T01:05:37.452Z,0.00
2018-03-23T01:06:37.372Z,0.00
2018-03-23T01:07:37.287Z,0.00
2018-03-23T01:08:37.211Z,0.00
2018-03-23T01:09:37.122Z,0.00
2018-03-23T01:10:37.036Z,0.00
2018-03-23T01:11:36.961Z,0.00
2018-03-23T01:12:36.873Z,0.00
2018-03-23T01:13:36.803Z,0.00
2018-03-23T01:14:36.758Z,0.00
2018-03-23T01:15:36.623Z,0.00
2018-03-23T01:16:36.548Z,0.00
2018-03-23T01:17:36.461Z,0.00
2018-03-23T01:18:36.387Z,0.00
2018-03-23T01:19:36.298Z,0.00
2018-03-23T01:20:36.212Z,0.00
2018-03-23T01:21:36.140Z,0.00
2018-03-23T01:22:36.049Z,0.00
2018-03-23T01:23:35.973Z,0.00
2018-03-23T01:24:35.888Z,0.00
2018-03-23T01:25:35.805Z,0.00
2018-03-23T01:26:35.724Z,0.00
2018-03-23T01:27:35.637Z,0.00
2018-03-23T01:28:35.552Z,0.00
2018-03-23T01:29:35.474Z,0.00
2018-03-23T01:30:35.387Z,0.00
2018-03-23T01:31:35.317Z,0.00
2018-03-23T01:32:35.224Z,0.00
2018-03-23T01:33:35.138Z,0.00
2018-03-23T01:34:35.063Z,0.00
2018-03-23T01:35:34.975Z,0.00
2018-03-23T01:36:34.901Z,0.00
2018-03-23T01:37:34.813Z,0.00
2018-03-23T01:38:34.725Z,0.00
2018-03-23T01:39:34.638Z,0.00
2018-03-23T01:40:34.563Z,0.00
2018-03-23T01:41:34.481Z,0.00
2018-03-23T01:42:34.389Z,0.00
2018-03-23T01:43:34.320Z,0.00
2018-03-23T01:44:34.225Z,0.00
2018-03-23T01:45:34.139Z,0.00
2018-03-23T01:46:34.065Z,0.00
2018-03-23T01:47:33.976Z,0.00
2018-03-23T01:48:33.904Z,0.00
2018-03-23T01:49:33.814Z,0.00
2018-03-23T01:50:33.726Z,0.00
2018-03-23T01:51:33.651Z,0.00
2018-03-23T01:52:33.565Z,0.00
2018-03-23T01:53:33.477Z,0.00
2018-03-23T01:54:33.403Z,0.00
2018-03-23T01:55:33.314Z,0.00
2018-03-23T01:56:33.227Z,0.00
2018-03-23T01:57:33.166Z,0.00
2018-03-23T01:58:33.067Z,0.00
2018-03-23T01:59:32.977Z,0.00
2018-03-23T02:00:32.903Z,0.00
2018-03-23T02:01:32.816Z,0.00
2018-03-23T02:02:32.732Z,0.00
2018-03-23T02:03:32.667Z,0.00
2018-03-23T02:04:32.567Z,0.00
2018-03-23T02:05:32.478Z,0.00
2018-03-23T02:06:32.407Z,0.00
2018-03-23T02:07:32.317Z,0.00
2018-03-23T02:08:32.228Z,0.00
2018-03-23T02:09:32.166Z,0.00
2018-03-23T02:10:32.067Z,0.00
2018-03-23T02:11:31.978Z,0.00
2018-03-23T02:12:31.904Z,0.00
2018-03-23T02:13:31.817Z,0.00
2018-03-23T02:14:31.728Z,0.00
2018-03-23T02:15:31.667Z,0.00
2018-03-23T02:16:31.566Z,0.00
2018-03-23T02:17:31.479Z,0.00
2018-03-23T02:18:31.405Z,0.00
2018-03-23T02:19:31.317Z,0.00
2018-03-23T02:20:31.230Z,0.00
2018-03-23T02:21:31.170Z,0.00
2018-03-23T02:22:31.069Z,0.00
2018-03-23T02:23:30.981Z,0.00
2018-03-23T02:24:30.905Z,0.00
2018-03-23T02:25:30.819Z,0.00
2018-03-23T02:26:30.730Z,0.00
2018-03-23T02:27:30.669Z,0.00
2018-03-23T02:28:30.569Z,0.00
2018-03-23T02:29:30.481Z,0.00
2018-03-23T02:30:30.407Z,0.00
2018-03-23T02:31:30.320Z,0.00
2018-03-23T02:32:30.231Z,0.00
2018-03-23T02:33:30.157Z,0.00
2018-03-23T02:34:30.072Z,0.00
2018-03-23T02:35:29.982Z,0.00
2018-03-23T02:36:29.907Z,0.00
2018-03-23T02:37:29.824Z,0.00
2018-03-23T02:38:29.731Z,0.00
2018-03-23T02:39:29.657Z,0.00
2018-03-23T02:40:29.569Z,0.00
2018-03-23T02:41:29.482Z,0.00
2018-03-23T02:42:29.408Z,0.00
2018-03-23T02:43:29.321Z,0.00
2018-03-23T02:44:29.232Z,0.00
2018-03-23T02:45:29.167Z,0.00
2018-03-23T02:46:29.071Z,0.00
2018-03-23T02:47:28.982Z,0.00
2018-03-23T02:48:28.916Z,0.00
2018-03-23T02:49:28.822Z,0.00
2018-03-23T02:50:28.733Z,0.00
2018-03-23T02:51:28.662Z,0.00
2018-03-23T02:52:28.572Z,0.00
2018-03-23T02:53:28.484Z,0.00
2018-03-23T02:54:28.410Z,0.00
2018-03-23T02:55:28.321Z,0.00
2018-03-23T02:56:28.244Z,0.00
2018-03-23T02:57:28.163Z,0.00
2018-03-23T02:58:28.072Z,0.00
2018-03-23T02:59:27.987Z,0.00
2018-03-23T03:00:27.912Z,0.00
2018-03-23T03:01:27.823Z,0.00
2018-03-23T03:02:27.735Z,0.00
2018-03-23T03:03:27.659Z,0.00
2018-03-23T03:04:27.578Z,0.00
2018-03-23T03:05:27.485Z,0.00
2018-03-23T03:06:27.398Z,0.00
2018-03-23T03:07:27.324Z,0.00
2018-03-23T03:08:27.235Z,0.00
2018-03-23T03:09:27.148Z,0.00
2018-03-23T03:10:27.074Z,0.00
2018-03-23T03:11:26.985Z,0.00
2018-03-23T03:12:26.899Z,0.00
2018-03-23T03:13:26.824Z,0.00
2018-03-23T03:14:26.735Z,0.00
2018-03-23T03:15:26.649Z,0.00
2018-03-23T03:16:26.575Z,0.00
2018-03-23T03:17:26.485Z,0.00
2018-03-23T03:18:26.400Z,0.00
2018-03-23T03:19:26.325Z,0.00
2018-03-23T03:20:26.236Z,0.00
2018-03-23T03:21:26.156Z,0.00
2018-03-23T03:22:26.075Z,0.00
2018-03-23T03:23:25.988Z,0.00
2018-03-23T03:24:25.900Z,0.00
2018-03-23T03:25:25.825Z,0.00
2018-03-23T03:26:25.739Z,0.00
2018-03-23T03:27:25.652Z,0.00
2018-03-23T03:28:25.577Z,0.00
2018-03-23T03:29:25.488Z,0.00
2018-03-23T03:30:25.406Z,0.00
2018-03-23T03:31:25.326Z,0.00
2018-03-23T03:32:25.238Z,0.00
2018-03-23T03:33:25.152Z,0.00
2018-03-23T03:34:25.076Z,0.00
2018-03-23T03:35:24.987Z,0.00
2018-03-23T03:36:24.902Z,0.00
2018-03-23T03:37:24.831Z,0.00
2018-03-23T03:38:24.739Z,0.00
2018-03-23T03:39:24.652Z,0.00
2018-03-23T03:40:24.577Z,0.00
2018-03-23T03:41:24.489Z,0.00
2018-03-23T03:42:24.402Z,0.00
2018-03-23T03:43:24.328Z,0.00
2018-03-23T03:44:24.239Z,0.00
2018-03-23T03:45:24.154Z,0.00
2018-03-23T03:46:24.078Z,0.00
2018-03-23T03:47:24.009Z,0.00
2018-03-23T03:48:23.905Z,0.00
2018-03-23T03:49:23.828Z,0.00
2018-03-23T03:50:23.746Z,0.00
2018-03-23T03:51:23.664Z,0.00
2018-03-23T03:52:23.578Z,0.00
2018-03-23T03:53:23.490Z,0.00
2018-03-23T03:54:23.405Z,0.00
2018-03-23T03:55:23.329Z,0.00
2018-03-23T03:56:23.240Z,0.00
2018-03-23T03:57:23.159Z,0.00
2018-03-23T03:58:23.080Z,0.00
2018-03-23T03:59:22.991Z,0.00
2018-03-23T04:00:22.904Z,0.00
2018-03-23T04:01:22.828Z,0.00
2018-03-23T04:02:22.757Z,0.00
2018-03-23T04:03:22.654Z,0.00
2018-03-23T04:04:22.585Z,0.00
2018-03-23T04:05:22.491Z,0.00
2018-03-23T04:06:22.405Z,0.00
2018-03-23T04:07:22.329Z,0.00
2018-03-23T04:08:22.255Z,0.00
2018-03-23T04:09:22.156Z,0.00
2018-03-23T04:10:22.087Z,0.00
2018-03-23T04:11:21.991Z,0.00
2018-03-23T04:12:21.906Z,0.00
2018-03-23T04:13:21.830Z,0.00
2018-03-23T04:14:21.754Z,0.00
2018-03-23T04:15:21.656Z,0.00
2018-03-23T04:16:21.585Z,0.00
2018-03-23T04:17:21.493Z,0.00
2018-03-23T04:18:21.407Z,0.00
2018-03-23T04:19:21.331Z,0.00
2018-03-23T04:20:21.256Z,0.00
2018-03-23T04:21:21.159Z,0.00
2018-03-23T04:22:21.090Z,0.00
2018-03-23T04:23:21.000Z,0.00
2018-03-23T04:24:20.912Z,0.00
2018-03-23T04:25:20.831Z,0.00
2018-03-23T04:26:20.758Z,0.00
2018-03-23T04:27:20.657Z,0.00
2018-03-23T04:28:20.583Z,0.00
2018-03-23T04:29:20.496Z,0.00
2018-03-23T04:30:20.407Z,0.00
2018-03-23T04:31:20.333Z,0.00
2018-03-23T04:32:20.245Z,0.00
2018-03-23T04:33:20.158Z,0.00
2018-03-23T04:34:20.087Z,0.00
2018-03-23T04:35:19.995Z,0.00
2018-03-23T04:36:19.908Z,4.00
2018-03-23T04:37:19.833Z,4.00
2018-03-23T04:38:19.744Z,0.00
2018-03-23T04:39:19.658Z,0.00
2018-03-23T04:40:19.584Z,4.00
2018-03-23T04:41:19.495Z,4.00
2018-03-23T04:42:19.410Z,4.00
2018-03-23T04:43:19.333Z,4.00
2018-03-23T04:44:19.246Z,4.00
2018-03-23T04:45:19.159Z,8.00
2018-03-23T04:46:19.084Z,8.00
2018-03-23T04:47:18.997Z,8.00
2018-03-23T04:48:18.910Z,8.00
2018-03-23T04:49:18.835Z,12.00
2018-03-23T04:50:18.747Z,12.00
2018-03-23T04:51:18.659Z,16.00
2018-03-23T04:52:18.586Z,16.00
2018-03-23T04:53:18.497Z,16.00
2018-03-23T04:54:18.410Z,24.00
2018-03-23T04:55:18.342Z,28.00
2018-03-23T04:56:18.247Z,32.00
2018-03-23T04:57:18.165Z,36.00
2018-03-23T04:58:18.087Z,40.00
2018-03-23T04:59:18.053Z,44.00
2018-03-23T05:00:17.911Z,44.00
2018-03-23T05:01:17.836Z,48.00
2018-03-23T05:02:17.748Z,52.00
2018-03-23T05:03:17.663Z,60.00
2018-03-23T05:04:17.586Z,68.00
2018-03-23T05:05:17.498Z,76.00
2018-03-23T05:06:17.412Z,88.00
2018-03-23T05:07:17.336Z,96.00
2018-03-23T05:08:17.248Z,96.00
2018-03-23T05:09:17.162Z,100.00
2018-03-23T05:10:17.088Z,108.00
2018-03-23T05:11:17.048Z,112.00
2018-03-23T05:12:16.913Z,116.00
2018-03-23T05:13:16.886Z,124.00
2018-03-23T05:14:16.749Z,108.00
2018-03-23T05:15:16.663Z,112.00
2018-03-23T05:16:16.587Z,144.00
2018-03-23T05:17:16.500Z,168.00
2018-03-23T05:18:16.424Z,176.00
2018-03-23T05:19:16.338Z,192.00
2018-03-23T05:20:16.250Z,208.00
2018-03-23T05:21:16.189Z,196.00
2018-03-23T05:22:16.088Z,204.00
2018-03-23T05:23:16.000Z,232.00
2018-03-23T05:24:15.925Z,248.00
2018-03-23T05:25:15.843Z,256.00
2018-03-23T05:26:15.751Z,284.00
2018-03-23T05:27:15.688Z,300.00
2018-03-23T05:28:15.592Z,340.00
2018-03-23T05:29:15.501Z,340.00
2018-03-23T05:30:15.426Z,356.00
2018-03-23T05:31:15.339Z,392.00
2018-03-23T05:32:15.251Z,368.00
2018-03-23T05:33:15.190Z,376.00
2018-03-23T05:34:15.089Z,416.00
2018-03-23T05:35:15.001Z,436.00
2018-03-23T05:36:14.927Z,460.00
2018-03-23T05:37:14.841Z,444.00
2018-03-23T05:38:14.751Z,404.00
2018-03-23T05:39:14.689Z,432.00
2018-03-23T05:40:14.591Z,436.00
2018-03-23T05:41:14.508Z,464.00
2018-03-23T05:42:14.427Z,488.00
2018-03-23T05:43:14.340Z,500.00
2018-03-23T05:44:14.256Z,508.00
2018-03-23T05:45:14.177Z,544.00
2018-03-23T05:46:14.158Z,568.00
2018-03-23T05:47:14.016Z,552.00
2018-03-23T05:48:13.929Z,584.00
2018-03-23T05:49:13.841Z,644.00
2018-03-23T05:50:13.767Z,708.00
2018-03-23T05:51:13.678Z,740.00
2018-03-23T05:52:13.593Z,792.00
2018-03-23T05:53:13.516Z,876.00
2018-03-23T05:54:13.428Z,968.00
2018-03-23T05:55:13.341Z,1132.00
2018-03-23T05:56:13.270Z,1288.00
2018-03-23T05:57:13.178Z,1340.00
2018-03-23T05:58:13.092Z,1180.00
2018-03-23T05:59:13.018Z,1196.00
2018-03-23T06:00:12.929Z,1204.00
2018-03-23T06:01:12.843Z,1172.00
2018-03-23T06:02:12.768Z,1176.00
2018-03-23T06:03:12.679Z,1196.00
2018-03-23T06:04:12.604Z,1164.00
2018-03-23T06:05:12.518Z,1364.00
2018-03-23T06:06:12.429Z,1544.00
2018-03-23T06:07:12.360Z,1492.00
2018-03-23T06:08:12.267Z,1548.00
2018-03-23T06:09:12.180Z,1948.00
2018-03-23T06:10:12.107Z,2124.00
2018-03-23T06:11:12.019Z,2268.00
2018-03-23T06:12:11.931Z,2280.00
2018-03-23T06:13:11.856Z,2372.00
2018-03-23T06:14:11.769Z,2388.00
2018-03-23T06:15:11.682Z,2276.00
2018-03-23T06:16:11.607Z,2308.00
2018-03-23T06:17:11.519Z,2488.00
2018-03-23T06:18:11.446Z,2688.00
2018-03-23T06:19:11.356Z,2776.00
2018-03-23T06:20:11.270Z,2776.00
2018-03-23T06:21:11.199Z,2724.00
2018-03-23T06:22:11.110Z,2688.00
2018-03-23T06:23:11.019Z,2656.00
2018-03-23T06:24:10.944Z,2600.00
2018-03-23T06:25:10.857Z,2556.00
2018-03-23T06:26:10.782Z,2508.00
2018-03-23T06:27:10.697Z,2468.00
2018-03-23T06:28:10.607Z,2612.00
2018-03-23T06:29:10.532Z,2788.00
2018-03-23T06:30:10.446Z,2872.00
2018-03-23T06:31:10.359Z,2792.00
2018-03-23T06:32:10.285Z,2756.00
2018-03-23T06:33:10.201Z,2512.00
2018-03-23T06:34:10.121Z,2636.00
2018-03-23T06:35:10.033Z,2744.00
2018-03-23T06:36:09.947Z,2644.00
2018-03-23T06:37:09.872Z,2760.00
2018-03-23T06:38:09.783Z,3020.00
2018-03-23T06:39:09.708Z,3368.00
2018-03-23T06:40:09.621Z,3328.00
2018-03-23T06:41:09.533Z,2964.00
2018-03-23T06:42:09.472Z,2680.00
2018-03-23T06:43:09.373Z,2608.00
2018-03-23T06:44:09.285Z,2920.00
2018-03-23T06:45:09.210Z,3196.00
2018-03-23T06:46:09.124Z,3464.00
2018-03-23T06:47:09.055Z,3484.00
2018-03-23T06:48:08.972Z,3188.00
2018-03-23T06:49:08.874Z,2980.00
2018-03-23T06:50:08.803Z,3112.00
2018-03-23T06:51:08.711Z,3308.00
2018-03-23T06:52:08.636Z,3568.00
2018-03-23T06:53:08.548Z,3464.00
2018-03-23T06:54:08.473Z,3172.00
2018-03-23T06:55:08.385Z,2988.00
2018-03-23T06:56:08.304Z,3280.00
2018-03-23T06:57:08.224Z,3508.00
2018-03-23T06:58:08.135Z,3544.00
2018-03-23T06:59:08.049Z,3380.00
2018-03-23T07:00:07.974Z,3244.00
2018-03-23T07:01:07.886Z,3032.00
2018-03-23T07:02:07.823Z,2744.00
2018-03-23T07:03:07.724Z,2632.00
2018-03-23T07:04:07.637Z,2540.00
2018-03-23T07:05:07.575Z,2404.00
2018-03-23T07:06:07.474Z,2484.00
2018-03-23T07:07:07.404Z,2652.00
2018-03-23T07:08:07.311Z,2660.00
2018-03-23T07:09:07.224Z,2488.00
2018-03-23T07:10:07.150Z,2428.00
2018-03-23T07:11:07.062Z,2536.00
2018-03-23T07:12:06.988Z,2656.00
2018-03-23T07:13:06.900Z,2720.00
2018-03-23T07:14:06.822Z,2900.00
2018-03-23T07:15:06.737Z,3152.00
2018-03-23T07:16:06.656Z,3204.00
2018-03-23T07:17:06.564Z,2904.00
2018-03-23T07:18:06.487Z,2696.00
2018-03-23T07:19:06.401Z,2868.00
2018-03-23T07:20:06.326Z,3152.00
2018-03-23T07:21:06.238Z,3464.00
2018-03-23T07:22:06.152Z,3740.00
2018-03-23T07:23:06.077Z,4136.00
2018-03-23T07:24:05.988Z,4352.00
2018-03-23T07:25:05.913Z,4388.00
2018-03-23T07:26:05.827Z,4272.00
2018-03-23T07:27:05.739Z,4164.00
2018-03-23T07:28:05.665Z,4020.00
2018-03-23T07:29:05.578Z,3920.00
2018-03-23T07:30:05.501Z,3920.00
2018-03-23T07:31:05.420Z,3996.00
2018-03-23T07:32:05.328Z,3916.00
2018-03-23T07:33:05.253Z,3804.00
2018-03-23T07:34:05.164Z,3764.00
2018-03-23T07:35:05.094Z,3756.00
2018-03-23T07:36:05.003Z,3812.00
2018-03-23T07:37:04.916Z,4044.00
2018-03-23T07:38:04.840Z,4536.00
2018-03-23T07:39:04.753Z,5152.00
2018-03-23T07:40:04.667Z,5712.00
2018-03-23T07:41:04.590Z,5968.00
2018-03-23T07:42:04.503Z,5956.00
2018-03-23T07:43:04.428Z,6000.00
2018-03-23T07:44:04.340Z,6152.00
2018-03-23T07:45:04.254Z,6352.00
2018-03-23T07:46:04.179Z,6604.00
2018-03-23T07:47:04.091Z,6752.00
2018-03-23T07:48:04.029Z,6508.00
2018-03-23T07:49:03.929Z,6292.00
2018-03-23T07:50:03.842Z,6284.00
2018-03-23T07:51:03.766Z,6220.00
2018-03-23T07:52:03.691Z,6092.00
2018-03-23T07:53:03.605Z,5928.00
2018-03-23T07:54:03.529Z,5896.00
2018-03-23T07:55:03.430Z,5928.00
2018-03-23T07:56:03.355Z,5816.00
2018-03-23T07:57:03.267Z,5680.00
2018-03-23T07:58:03.195Z,5760.00
2018-03-23T07:59:03.105Z,6016.00
2018-03-23T08:00:03.046Z,5912.00
2018-03-23T08:01:02.948Z,5936.00
2018-03-23T08:02:02.855Z,6252.00
2018-03-23T08:03:02.780Z,6548.00
2018-03-23T08:04:02.693Z,6612.00
2018-03-23T08:05:02.630Z,6400.00
2018-03-23T08:06:02.530Z,6184.00
2018-03-23T08:07:02.503Z,6172.00
2018-03-23T08:08:02.368Z,6420.00
2018-03-23T08:09:02.282Z,6900.00
2018-03-23T08:10:02.206Z,7544.00
2018-03-23T08:11:02.125Z,8144.00
2018-03-23T08:12:02.044Z,8264.00
2018-03-23T08:13:01.957Z,8044.00
2018-03-23T08:14:01.872Z,7680.00
2018-03-23T08:15:01.794Z,7572.00
2018-03-23T08:16:01.707Z,7628.00
2018-03-23T08:17:01.642Z,7648.00
2018-03-23T08:18:01.544Z,7384.00
2018-03-23T08:19:01.470Z,7036.00
2018-03-23T08:20:01.384Z,6828.00
2018-03-23T08:21:01.296Z,6400.00
2018-03-23T08:22:01.220Z,5956.00
2018-03-23T08:23:01.133Z,5532.00
2018-03-23T08:24:01.059Z,5200.00
2018-03-23T08:25:00.970Z,5076.00
2018-03-23T08:26:00.895Z,5096.00
2018-03-23T08:27:00.808Z,5236.00
2018-03-23T08:28:00.739Z,5272.00
2018-03-23T08:29:00.645Z,5236.00
2018-03-23T08:30:00.570Z,5236.00
2018-03-23T08:31:00.485Z,5396.00
2018-03-23T08:32:00.396Z,5588.00
2018-03-23T08:33:00.320Z,5484.00
2018-03-23T08:34:00.238Z,5124.00
2018-03-23T08:35:00.159Z,4764.00
2018-03-23T08:36:00.071Z,4552.00
2018-03-23T08:37:00.010Z,4524.00
2018-03-23T08:37:59.909Z,4628.00
2018-03-23T08:38:59.835Z,4808.00
2018-03-23T08:39:59.746Z,4920.00
2018-03-23T08:40:59.661Z,4916.00
2018-03-23T08:41:59.585Z,4856.00
2018-03-23T08:42:59.497Z,4788.00
2018-03-23T08:43:59.423Z,4792.00
2018-03-23T08:44:59.377Z,4832.00
2018-03-23T08:45:59.262Z,4764.00
2018-03-23T08:46:59.172Z,4676.00
2018-03-23T08:47:59.097Z,4704.00
2018-03-23T08:48:59.010Z,4780.00
2018-03-23T08:49:58.923Z,4840.00
2018-03-23T08:50:58.848Z,4888.00
2018-03-23T08:51:58.760Z,4952.00
2018-03-23T08:52:58.686Z,4956.00
2018-03-23T08:53:58.599Z,4860.00
2018-03-23T08:54:58.513Z,4800.00
2018-03-23T08:55:58.439Z,4848.00
2018-03-23T08:56:58.348Z,4976.00
2018-03-23T08:57:58.274Z,5076.00
2018-03-23T08:58:58.187Z,5000.00
2018-03-23T08:59:58.112Z,4868.00
2018-03-23T09:00:58.026Z,4804.00
2018-03-23T09:01:57.939Z,4788.00
2018-03-23T09:02:57.862Z,4820.00
2018-03-23T09:03:57.774Z,4808.00
2018-03-23T09:04:57.712Z,4772.00
2018-03-23T09:05:57.612Z,4756.00
2018-03-23T09:06:57.541Z,4744.00
2018-03-23T09:07:57.449Z,4772.00
2018-03-23T09:08:57.363Z,4736.00
2018-03-23T09:09:57.290Z,4672.00
2018-03-23T09:10:57.215Z,4572.00
2018-03-23T09:11:57.125Z,4496.00
2018-03-23T09:12:57.044Z,4492.00
2018-03-23T09:13:56.963Z,4528.00
2018-03-23T09:14:56.875Z,4532.00
2018-03-23T09:15:56.789Z,4392.00
2018-03-23T09:16:56.715Z,4192.00
2018-03-23T09:17:56.631Z,4096.00
2018-03-23T09:18:56.550Z,4180.00
2018-03-23T09:19:56.464Z,4188.00
2018-03-23T09:20:56.377Z,4120.00
2018-03-23T09:21:56.315Z,4136.00
2018-03-23T09:22:56.214Z,4636.00
2018-03-23T09:23:56.141Z,5008.00
2018-03-23T09:24:56.053Z,5180.00
2018-03-23T09:25:55.976Z,5164.00
2018-03-23T09:26:55.892Z,5000.00
2018-03-23T09:27:55.814Z,4840.00
2018-03-23T09:28:55.727Z,4764.00
2018-03-23T09:29:55.642Z,4828.00
2018-03-23T09:30:55.566Z,4948.00
2018-03-23T09:31:55.477Z,5152.00
2018-03-23T09:32:55.402Z,5416.00
2018-03-23T09:33:55.315Z,5636.00
2018-03-23T09:34:55.229Z,5760.00
2018-03-23T09:35:55.153Z,5824.00
2018-03-23T09:36:55.066Z,5852.00
2018-03-23T09:37:54.991Z,5892.00
2018-03-23T09:38:54.903Z,5924.00
2018-03-23T09:39:54.828Z,5972.00
2018-03-23T09:40:54.741Z,6060.00
2018-03-23T09:41:54.656Z,6204.00
2018-03-23T09:42:54.582Z,6348.00
2018-03-23T09:43:54.491Z,6384.00
2018-03-23T09:44:54.424Z,6260.00
2018-03-23T09:45:54.328Z,5984.00
2018-03-23T09:46:54.255Z,5640.00
2018-03-23T09:47:54.166Z,5316.00
2018-03-23T09:48:54.080Z,5088.00
2018-03-23T09:49:54.004Z,4932.00
2018-03-23T09:50:53.917Z,4780.00
2018-03-23T09:51:53.843Z,4660.00
2018-03-23T09:52:53.754Z,4620.00
2018-03-23T09:53:53.679Z,4688.00
2018-03-23T09:54:53.593Z,4796.00
2018-03-23T09:55:53.506Z,4864.00
2018-03-23T09:56:53.430Z,4888.00
2018-03-23T09:57:53.343Z,4852.00
2018-03-23T09:58:53.269Z,4792.00
2018-03-23T09:59:53.180Z,4768.00
2018-03-23T10:00:53.107Z,4836.00
2018-03-23T10:01:53.027Z,4972.00
2018-03-23T10:02:52.932Z,5060.00
2018-03-23T10:03:52.937Z,5024.00
2018-03-23T10:04:52.769Z,4912.00
2018-03-23T10:05:52.695Z,4860.00
2018-03-23T10:06:52.606Z,4948.00
2018-03-23T10:07:52.531Z,5156.00
2018-03-23T10:08:52.445Z,5324.00
2018-03-23T10:09:52.401Z,5312.00
2018-03-23T10:10:52.282Z,5180.00
2018-03-23T10:11:52.194Z,5020.00
2018-03-23T10:12:52.120Z,5028.00
2018-03-23T10:13:52.032Z,5112.00
2018-03-23T10:14:51.972Z,5124.00
2018-03-23T10:15:51.871Z,5072.00
2018-03-23T10:16:51.785Z,4968.00
2018-03-23T10:17:51.707Z,4884.00
2018-03-23T10:18:51.632Z,4860.00
2018-03-23T10:19:51.545Z,4888.00
2018-03-23T10:20:51.494Z,4980.00
2018-03-23T10:21:51.371Z,4924.00
2018-03-23T10:22:51.297Z,4848.00
2018-03-23T10:23:51.208Z,4952.00
2018-03-23T10:24:51.147Z,4932.00
2018-03-23T10:25:51.046Z,4824.00
2018-03-23T10:26:50.971Z,4688.00
2018-03-23T10:27:50.884Z,4556.00
2018-03-23T10:28:50.797Z,4364.00
2018-03-23T10:29:50.721Z,4160.00
2018-03-23T10:30:50.633Z,4028.00
2018-03-23T10:31:50.571Z,3984.00
2018-03-23T10:32:50.477Z,4020.00
2018-03-23T10:33:50.387Z,4120.00
2018-03-23T10:34:50.311Z,4232.00
2018-03-23T10:35:50.234Z,4268.00
2018-03-23T10:36:50.147Z,4232.00
2018-03-23T10:37:50.060Z,4188.00
2018-03-23T10:38:49.986Z,4160.00
2018-03-23T10:39:49.897Z,4096.00
2018-03-23T10:40:49.812Z,4024.00
2018-03-23T10:41:49.735Z,3952.00
2018-03-23T10:42:49.649Z,3872.00
2018-03-23T10:43:49.573Z,3828.00
2018-03-23T10:44:49.485Z,3896.00
2018-03-23T10:45:49.410Z,4052.00
2018-03-23T10:46:49.349Z,4212.00
2018-03-23T10:47:49.236Z,4424.00
2018-03-23T10:48:49.161Z,4744.00
2018-03-23T10:49:49.076Z,5060.00
2018-03-23T10:50:48.999Z,5240.00
2018-03-23T10:51:48.911Z,5200.00
2018-03-23T10:52:48.825Z,5060.00
2018-03-23T10:53:48.749Z,5032.00
2018-03-23T10:54:48.661Z,5108.00
2018-03-23T10:55:48.587Z,5268.00
2018-03-23T10:56:48.502Z,5484.00
2018-03-23T10:57:48.414Z,5656.00
2018-03-23T10:58:48.337Z,5660.00
2018-03-23T10:59:48.251Z,5520.00
2018-03-23T11:00:48.176Z,5492.00
2018-03-23T11:01:48.090Z,5476.00
2018-03-23T11:02:48.012Z,5280.00
2018-03-23T11:03:47.925Z,4996.00
2018-03-23T11:04:47.838Z,4940.00
2018-03-23T11:05:47.762Z,4992.00
2018-03-23T11:06:47.677Z,4944.00
2018-03-23T11:07:47.600Z,4832.00
2018-03-23T11:08:47.512Z,4748.00
2018-03-23T11:09:47.426Z,4732.00
2018-03-23T11:10:47.352Z,4812.00
2018-03-23T11:11:47.263Z,4816.00
2018-03-23T11:12:47.188Z,4804.00
2018-03-23T11:13:47.102Z,4760.00
2018-03-23T11:14:47.027Z,4668.00
2018-03-23T11:15:46.939Z,4768.00
2018-03-23T11:16:46.852Z,5024.00
2018-03-23T11:17:46.778Z,5160.00
2018-03-23T11:18:46.688Z,5112.00
2018-03-23T11:19:46.614Z,4900.00
2018-03-23T11:20:46.528Z,4664.00
2018-03-23T11:21:46.440Z,4400.00
2018-03-23T11:22:46.366Z,4208.00
2018-03-23T11:23:46.278Z,4092.00
2018-03-23T11:24:46.202Z,4076.00
2018-03-23T11:25:46.114Z,4036.00
2018-03-23T11:26:46.039Z,3948.00
2018-03-23T11:27:45.953Z,3872.00
2018-03-23T11:28:45.865Z,3876.00
2018-03-23T11:29:45.790Z,3988.00
2018-03-23T11:30:45.704Z,4120.00
2018-03-23T11:31:45.631Z,4264.00
2018-03-23T11:32:45.541Z,4328.00
2018-03-23T11:33:45.454Z,4308.00
2018-03-23T11:34:45.380Z,4276.00
2018-03-23T11:35:45.290Z,4292.00
2018-03-23T11:36:45.217Z,4336.00
2018-03-23T11:37:45.129Z,4464.00
2018-03-23T11:38:45.055Z,4540.00
2018-03-23T11:39:44.970Z,4508.00
2018-03-23T11:40:44.880Z,4444.00
2018-03-23T11:41:44.804Z,4516.00
2018-03-23T11:42:44.716Z,4636.00
2018-03-23T11:43:44.642Z,4644.00
2018-03-23T11:44:44.566Z,4484.00
2018-03-23T11:45:44.468Z,4224.00
2018-03-23T11:46:44.391Z,4072.00
2018-03-23T11:47:44.305Z,3904.00
2018-03-23T11:48:44.230Z,3780.00
2018-03-23T11:49:44.147Z,3660.00
2018-03-23T11:50:44.086Z,3536.00
2018-03-23T11:51:43.981Z,3420.00
2018-03-23T11:52:43.892Z,3392.00
2018-03-23T11:53:43.818Z,3484.00
2018-03-23T11:54:43.730Z,3608.00
2018-03-23T11:55:43.656Z,3604.00
2018-03-23T11:56:43.568Z,3492.00
2018-03-23T11:57:43.483Z,3456.00
2018-03-23T11:58:43.408Z,3512.00
2018-03-23T11:59:43.318Z,3664.00
2018-03-23T12:00:43.257Z,3828.00
2018-03-23T12:01:43.157Z,3924.00
2018-03-23T12:02:43.069Z,4024.00
2018-03-23T12:03:42.995Z,4064.00
2018-03-23T12:04:42.906Z,3952.00
2018-03-23T12:05:42.831Z,3864.00
2018-03-23T12:06:42.757Z,3816.00
2018-03-23T12:07:42.657Z,3640.00
2018-03-23T12:08:42.586Z,3572.00
2018-03-23T12:09:42.494Z,3732.00
2018-03-23T12:10:42.424Z,3808.00
2018-03-23T12:11:42.332Z,4052.00
2018-03-23T12:12:42.258Z,4256.00
2018-03-23T12:13:42.170Z,4204.00
2018-03-23T12:14:42.089Z,4220.00
2018-03-23T12:15:42.008Z,4216.00
2018-03-23T12:16:41.922Z,4200.00
2018-03-23T12:17:41.833Z,4276.00
2018-03-23T12:18:41.759Z,4288.00
2018-03-23T12:19:41.671Z,4212.00
2018-03-23T12:20:41.590Z,4172.00
2018-03-23T12:21:41.508Z,4152.00
2018-03-23T12:22:41.424Z,4220.00
2018-03-23T12:23:41.345Z,4240.00
2018-03-23T12:24:41.259Z,4260.00
2018-03-23T12:25:41.171Z,4308.00
2018-03-23T12:26:41.096Z,4300.00
2018-03-23T12:27:41.010Z,4180.00
2018-03-23T12:28:40.942Z,4200.00
2018-03-23T12:29:40.848Z,4208.00
2018-03-23T12:30:40.760Z,4200.00
2018-03-23T12:31:40.690Z,4200.00
2018-03-23T12:32:40.596Z,4220.00
2018-03-23T12:33:40.526Z,4204.00